sensor_id;sensor_type;location;lat;lon;timestamp;pressure;altitude;pressure_sealevel;temperature;humidity
18533;BME280;9396;51.510;11.934;2022-08-11T00:02:26;101217.53;;;19.67;68.18
18533;BME280;9396;51.510;11.934;2022-08-11T00:04:55;101208.78;;;19.65;68.01
18533;BME280;9396;51.510;11.934;2022-08-11T00:07:23;101213.34;;;19.64;68.14
18533;BME280;9396;51.510;11.934;2022-08-11T00:09:51;101214.53;;;19.62;68.14
18533;BME280;9396;51.510;11.934;2022-08-11T00:12:19;101207.88;;;19.58;68.51
18533;BME280;9396;51.510;11.934;2022-08-11T00:14:54;101159.31;;;19.22;68.71
18533;BME280;9396;51.510;11.934;2022-08-11T00:17:26;101216.94;;;19.50;68.43
18533;BME280;9396;51.510;11.934;2022-08-11T00:20:00;101214.03;;;19.52;68.67
18533;BME280;9396;51.510;11.934;2022-08-11T00:22:28;101213.59;;;19.48;69.10
18533;BME280;9396;51.510;11.934;2022-08-11T00:24:56;101212.69;;;19.41;68.65
18533;BME280;9396;51.510;11.934;2022-08-11T00:27:31;101203.03;;;19.32;68.84
18533;BME280;9396;51.510;11.934;2022-08-11T00:29:57;101213.28;;;19.37;69.09
18533;BME280;9396;51.510;11.934;2022-08-11T00:32:26;101213.34;;;19.29;69.28
18533;BME280;9396;51.510;11.934;2022-08-11T00:34:54;101217.06;;;19.28;69.33
18533;BME280;9396;51.510;11.934;2022-08-11T00:37:23;101218.28;;;19.25;69.23
18533;BME280;9396;51.510;11.934;2022-08-11T00:39:52;101202.38;;;19.15;69.30
18533;BME280;9396;51.510;11.934;2022-08-11T00:42:27;101213.63;;;19.19;69.45
18533;BME280;9396;51.510;11.934;2022-08-11T00:45:06;101216.44;;;19.11;69.35
18533;BME280;9396;51.510;11.934;2022-08-11T00:47:43;101228.44;;;19.08;69.59
18533;BME280;9396;51.510;11.934;2022-08-11T00:50:20;101223.44;;;19.05;69.75
18533;BME280;9396;51.510;11.934;2022-08-11T00:53:01;101211.34;;;19.01;69.60
18533;BME280;9396;51.510;11.934;2022-08-11T01:01:56;101211.47;;;18.93;69.63
18533;BME280;9396;51.510;11.934;2022-08-11T01:08:06;101212.84;;;18.89;69.74
18533;BME280;9396;51.510;11.934;2022-08-11T01:11:00;101218.91;;;18.91;69.94
18533;BME280;9396;51.510;11.934;2022-08-11T01:13:44;101213.25;;;18.86;70.10
18533;BME280;9396;51.510;11.934;2022-08-11T01:16:49;101213.59;;;18.83;70.09
18533;BME280;9396;51.510;11.934;2022-08-11T01:19:50;101223.91;;;18.80;69.80
18533;BME280;9396;51.510;11.934;2022-08-11T01:25:44;101222.81;;;18.74;69.57
18533;BME280;9396;51.510;11.934;2022-08-11T01:43:34;101233.00;;;18.35;70.52
18533;BME280;9396;51.510;11.934;2022-08-11T01:46:31;101229.19;;;18.07;70.83
18533;BME280;9396;51.510;11.934;2022-08-11T01:49:07;101235.84;;;18.19;70.52
18533;BME280;9396;51.510;11.934;2022-08-11T01:51:47;101238.44;;;18.27;70.83
18533;BME280;9396;51.510;11.934;2022-08-11T01:54:29;101182.19;;;17.95;70.36
18533;BME280;9396;51.510;11.934;2022-08-11T01:57:06;101229.84;;;18.32;70.92
18533;BME280;9396;51.510;11.934;2022-08-11T01:59:42;101227.94;;;18.32;71.09
18533;BME280;9396;51.510;11.934;2022-08-11T02:02:38;101235.22;;;18.32;71.41
18533;BME280;9396;51.510;11.934;2022-08-11T02:05:22;101231.69;;;18.31;71.21
18533;BME280;9396;51.510;11.934;2022-08-11T02:07:58;101230.19;;;18.29;71.54
18533;BME280;9396;51.510;11.934;2022-08-11T02:10:31;101229.34;;;18.28;71.40
18533;BME280;9396;51.510;11.934;2022-08-11T02:13:34;101232.22;;;18.27;71.36
18533;BME280;9396;51.510;11.934;2022-08-11T02:16:16;101222.66;;;18.24;71.58
18533;BME280;9396;51.510;11.934;2022-08-11T02:18:49;101222.84;;;18.23;71.58
18533;BME280;9396;51.510;11.934;2022-08-11T02:21:43;101145.56;;;17.71;71.60
18533;BME280;9396;51.510;11.934;2022-08-11T02:24:33;101230.63;;;18.17;71.76
18533;BME280;9396;51.510;11.934;2022-08-11T02:27:05;101235.53;;;18.14;71.72
18533;BME280;9396;51.510;11.934;2022-08-11T02:29:41;101232.84;;;18.14;71.38
18533;BME280;9396;51.510;11.934;2022-08-11T02:32:16;101231.53;;;18.10;71.60
18533;BME280;9396;51.510;11.934;2022-08-11T02:35:09;101237.66;;;18.04;72.04
18533;BME280;9396;51.510;11.934;2022-08-11T02:37:47;101238.38;;;17.98;72.42
18533;BME280;9396;51.510;11.934;2022-08-11T02:40:22;101237.06;;;17.94;71.75
18533;BME280;9396;51.510;11.934;2022-08-11T02:43:22;101232.41;;;17.88;72.06
18533;BME280;9396;51.510;11.934;2022-08-11T02:46:01;101229.88;;;17.86;72.05
18533;BME280;9396;51.510;11.934;2022-08-11T02:48:41;101224.88;;;17.83;72.05
18533;BME280;9396;51.510;11.934;2022-08-11T02:51:35;101224.03;;;17.83;72.02
18533;BME280;9396;51.510;11.934;2022-08-11T02:54:10;101223.56;;;17.79;72.33
18533;BME280;9396;51.510;11.934;2022-08-11T02:56:48;101221.06;;;17.78;72.30
18533;BME280;9396;51.510;11.934;2022-08-11T02:59:32;101225.59;;;17.77;72.45
18533;BME280;9396;51.510;11.934;2022-08-11T03:02:32;101222.94;;;17.69;72.67
18533;BME280;9396;51.510;11.934;2022-08-11T03:05:21;101226.84;;;17.67;72.45
18533;BME280;9396;51.510;11.934;2022-08-11T03:08:04;101229.91;;;17.64;72.38
18533;BME280;9396;51.510;11.934;2022-08-11T03:10:40;101226.72;;;17.60;72.45
18533;BME280;9396;51.510;11.934;2022-08-11T03:13:37;101226.06;;;17.58;72.48
18533;BME280;9396;51.510;11.934;2022-08-11T03:16:26;101221.69;;;17.57;72.43
18533;BME280;9396;51.510;11.934;2022-08-11T03:19:21;101225.94;;;17.52;72.42
18533;BME280;9396;51.510;11.934;2022-08-11T03:21:58;101235.41;;;17.48;72.58
18533;BME280;9396;51.510;11.934;2022-08-11T03:24:35;101229.50;;;17.44;72.54
18533;BME280;9396;51.510;11.934;2022-08-11T03:27:08;101229.66;;;17.43;72.71
18533;BME280;9396;51.510;11.934;2022-08-11T03:29:43;101231.53;;;17.42;72.85
18533;BME280;9396;51.510;11.934;2022-08-11T03:32:23;101223.78;;;17.39;72.85
18533;BME280;9396;51.510;11.934;2022-08-11T03:34:54;101228.53;;;17.37;73.13
18533;BME280;9396;51.510;11.934;2022-08-11T03:37:39;101231.38;;;17.36;73.00
18533;BME280;9396;51.510;11.934;2022-08-11T03:40:40;101240.84;;;17.32;73.43
18533;BME280;9396;51.510;11.934;2022-08-11T03:43:52;101233.75;;;17.31;73.55
18533;BME280;9396;51.510;11.934;2022-08-11T03:46:31;101230.09;;;17.32;73.70
18533;BME280;9396;51.510;11.934;2022-08-11T03:49:26;101232.94;;;17.30;73.69
18533;BME280;9396;51.510;11.934;2022-08-11T03:52:02;101243.84;;;17.29;73.67
18533;BME280;9396;51.510;11.934;2022-08-11T03:54:41;101236.16;;;17.26;73.74
18533;BME280;9396;51.510;11.934;2022-08-11T04:00:38;101245.75;;;17.20;74.02
18533;BME280;9396;51.510;11.934;2022-08-11T04:03:37;101244.59;;;17.23;73.96
18533;BME280;9396;51.510;11.934;2022-08-11T04:06:30;101238.91;;;17.18;73.99
18533;BME280;9396;51.510;11.934;2022-08-11T04:12:17;101248.31;;;17.13;74.32
18533;BME280;9396;51.510;11.934;2022-08-11T04:15:24;101247.34;;;17.06;74.87
18533;BME280;9396;51.510;11.934;2022-08-11T04:18:45;101250.72;;;17.08;74.62
18533;BME280;9396;51.510;11.934;2022-08-11T04:24:57;101238.75;;;17.11;74.61
18533;BME280;9396;51.510;11.934;2022-08-11T04:30:41;101246.63;;;17.12;74.88
18533;BME280;9396;51.510;11.934;2022-08-11T04:33:33;101244.78;;;17.13;75.24
18533;BME280;9396;51.510;11.934;2022-08-11T04:36:16;101247.13;;;17.16;75.16
18533;BME280;9396;51.510;11.934;2022-08-11T04:39:14;101242.22;;;17.20;75.05
18533;BME280;9396;51.510;11.934;2022-08-11T04:42:20;101244.75;;;17.21;75.21
18533;BME280;9396;51.510;11.934;2022-08-11T04:45:43;101247.94;;;17.25;75.13
18533;BME280;9396;51.510;11.934;2022-08-11T04:48:38;101254.66;;;17.21;75.62
18533;BME280;9396;51.510;11.934;2022-08-11T04:51:47;101258.03;;;17.23;75.43
18533;BME280;9396;51.510;11.934;2022-08-11T04:55:12;101248.09;;;17.23;75.19
18533;BME280;9396;51.510;11.934;2022-08-11T04:58:05;101260.00;;;17.29;74.82
18533;BME280;9396;51.510;11.934;2022-08-11T05:01:03;101252.59;;;17.31;74.66
18533;BME280;9396;51.510;11.934;2022-08-11T05:04:06;101248.19;;;17.38;74.29
18533;BME280;9396;51.510;11.934;2022-08-11T05:07:30;101257.22;;;17.45;74.22
18533;BME280;9396;51.510;11.934;2022-08-11T05:10:18;101256.22;;;17.46;74.43
18533;BME280;9396;51.510;11.934;2022-08-11T05:12:52;101253.88;;;17.51;74.09
18533;BME280;9396;51.510;11.934;2022-08-11T05:15:29;101253.50;;;17.54;74.22
18533;BME280;9396;51.510;11.934;2022-08-11T05:18:21;101251.72;;;17.69;73.81
18533;BME280;9396;51.510;11.934;2022-08-11T05:21:09;101242.22;;;17.81;73.69
18533;BME280;9396;51.510;11.934;2022-08-11T05:23:57;101253.56;;;17.91;73.59
18533;BME280;9396;51.510;11.934;2022-08-11T05:26:47;101251.47;;;18.01;73.23
18533;BME280;9396;51.510;11.934;2022-08-11T05:29:41;101250.22;;;18.11;73.45
18533;BME280;9396;51.510;11.934;2022-08-11T05:32:30;101255.63;;;18.26;73.11
18533;BME280;9396;51.510;11.934;2022-08-11T05:35:24;101248.50;;;18.33;72.76
18533;BME280;9396;51.510;11.934;2022-08-11T05:37:54;101170.03;;;17.99;72.68
18533;BME280;9396;51.510;11.934;2022-08-11T05:40:46;101262.50;;;18.66;72.40
18533;BME280;9396;51.510;11.934;2022-08-11T05:43:32;101252.19;;;18.84;71.43
18533;BME280;9396;51.510;11.934;2022-08-11T05:46:17;101247.16;;;18.95;71.54
18533;BME280;9396;51.510;11.934;2022-08-11T05:49:08;101252.69;;;19.23;71.03
18533;BME280;9396;51.510;11.934;2022-08-11T05:51:54;101258.09;;;19.38;70.89
18533;BME280;9396;51.510;11.934;2022-08-11T05:54:39;101240.59;;;19.90;70.27
18533;BME280;9396;51.510;11.934;2022-08-11T05:57:30;101252.16;;;21.22;67.53
18533;BME280;9396;51.510;11.934;2022-08-11T05:59:59;101249.28;;;22.10;63.48
18533;BME280;9396;51.510;11.934;2022-08-11T06:02:27;101258.97;;;23.54;62.29
18533;BME280;9396;51.510;11.934;2022-08-11T06:04:55;101245.66;;;24.57;59.43
18533;BME280;9396;51.510;11.934;2022-08-11T06:07:29;101245.47;;;25.49;56.76
18533;BME280;9396;51.510;11.934;2022-08-11T06:09:57;101248.22;;;25.31;56.69
18533;BME280;9396;51.510;11.934;2022-08-11T06:12:28;101232.75;;;26.14;55.45
18533;BME280;9396;51.510;11.934;2022-08-11T06:15:00;101248.19;;;27.52;53.16
18533;BME280;9396;51.510;11.934;2022-08-11T06:17:32;101243.63;;;28.85;51.20
18533;BME280;9396;51.510;11.934;2022-08-11T06:20:02;101243.31;;;29.68;50.24
18533;BME280;9396;51.510;11.934;2022-08-11T06:22:32;101243.91;;;28.34;50.70
18533;BME280;9396;51.510;11.934;2022-08-11T06:25:00;101240.44;;;28.22;51.92
18533;BME280;9396;51.510;11.934;2022-08-11T06:27:29;101238.84;;;28.97;50.69
18533;BME280;9396;51.510;11.934;2022-08-11T06:29:57;101250.47;;;28.66;50.47
18533;BME280;9396;51.510;11.934;2022-08-11T06:32:26;101247.94;;;28.81;50.99
18533;BME280;9396;51.510;11.934;2022-08-11T06:35:10;101250.38;;;28.61;50.71
18533;BME280;9396;51.510;11.934;2022-08-11T06:37:48;101249.25;;;27.79;51.08
18533;BME280;9396;51.510;11.934;2022-08-11T06:40:33;101257.03;;;27.71;51.59
18533;BME280;9396;51.510;11.934;2022-08-11T06:43:09;101255.69;;;27.45;52.11
18533;BME280;9396;51.510;11.934;2022-08-11T06:45:45;101194.81;;;28.44;50.21
18533;BME280;9396;51.510;11.934;2022-08-11T06:48:15;101248.78;;;29.68;49.64
18533;BME280;9396;51.510;11.934;2022-08-11T06:50:49;101245.13;;;30.16;47.42
18533;BME280;9396;51.510;11.934;2022-08-11T06:53:38;101249.28;;;30.92;46.33
18533;BME280;9396;51.510;11.934;2022-08-11T06:56:06;101250.78;;;31.19;46.38
18533;BME280;9396;51.510;11.934;2022-08-11T06:58:51;101245.47;;;31.70;45.64
18533;BME280;9396;51.510;11.934;2022-08-11T07:01:40;101248.84;;;32.07;45.80
18533;BME280;9396;51.510;11.934;2022-08-11T07:04:12;101253.72;;;31.75;46.73
18533;BME280;9396;51.510;11.934;2022-08-11T07:07:00;101248.84;;;32.07;46.55
18533;BME280;9396;51.510;11.934;2022-08-11T07:10:19;101243.84;;;32.24;45.13
18533;BME280;9396;51.510;11.934;2022-08-11T07:13:06;101248.56;;;32.59;46.09
18533;BME280;9396;51.510;11.934;2022-08-11T07:15:52;101242.47;;;32.31;49.99
18533;BME280;9396;51.510;11.934;2022-08-11T07:18:24;101235.81;;;32.78;44.99
18533;BME280;9396;51.510;11.934;2022-08-11T07:21:13;101246.09;;;32.27;45.88
18533;BME280;9396;51.510;11.934;2022-08-11T07:24:01;101229.28;;;32.23;45.92
18533;BME280;9396;51.510;11.934;2022-08-11T07:26:50;101230.56;;;31.61;45.69
18533;BME280;9396;51.510;11.934;2022-08-11T07:29:36;101243.81;;;31.74;46.16
18533;BME280;9396;51.510;11.934;2022-08-11T07:32:23;101241.16;;;31.17;46.29
18533;BME280;9396;51.510;11.934;2022-08-11T07:34:56;101245.13;;;30.16;47.01
18533;BME280;9396;51.510;11.934;2022-08-11T07:37:25;101240.69;;;30.83;46.87
18533;BME280;9396;51.510;11.934;2022-08-11T07:39:57;101245.38;;;31.39;46.88
18533;BME280;9396;51.510;11.934;2022-08-11T07:42:29;101240.78;;;31.80;45.98
18533;BME280;9396;51.510;11.934;2022-08-11T07:45:02;101240.28;;;31.88;46.45
18533;BME280;9396;51.510;11.934;2022-08-11T07:47:48;101247.97;;;31.04;47.80
18533;BME280;9396;51.510;11.934;2022-08-11T07:50:34;101240.47;;;31.62;47.44
18533;BME280;9396;51.510;11.934;2022-08-11T07:53:19;101245.13;;;30.16;47.70
18533;BME280;9396;51.510;11.934;2022-08-11T07:55:47;101230.75;;;30.77;48.44
18533;BME280;9396;51.510;11.934;2022-08-11T07:58:17;101249.44;;;31.22;46.81
18533;BME280;9396;51.510;11.934;2022-08-11T08:01:04;101259.22;;;29.98;48.16
18533;BME280;9396;51.510;11.934;2022-08-11T08:03:49;101259.22;;;29.98;48.79
18533;BME280;9396;51.510;11.934;2022-08-11T08:06:35;101222.81;;;30.39;47.99
18533;BME280;9396;51.510;11.934;2022-08-11T08:09:20;101248.72;;;30.90;47.42
18533;BME280;9396;51.510;11.934;2022-08-11T08:12:06;101242.78;;;30.66;48.26
18533;BME280;9396;51.510;11.934;2022-08-11T08:14:53;101235.38;;;30.30;47.41
18533;BME280;9396;51.510;11.934;2022-08-11T08:17:39;101242.97;;;29.91;48.75
18533;BME280;9396;51.510;11.934;2022-08-11T08:20:23;101234.94;;;29.80;51.34
18533;BME280;9396;51.510;11.934;2022-08-11T08:22:52;101240.13;;;29.55;48.59
18533;BME280;9396;51.510;11.934;2022-08-11T08:25:23;101240.88;;;29.72;51.56
18533;BME280;9396;51.510;11.934;2022-08-11T08:27:51;101233.09;;;30.22;49.37
18533;BME280;9396;51.510;11.934;2022-08-11T08:30:20;101228.81;;;29.99;48.32
18533;BME280;9396;51.510;11.934;2022-08-11T08:33:04;101228.97;;;29.88;48.10
18533;BME280;9396;51.510;11.934;2022-08-11T08:35:34;101228.22;;;29.97;47.93
18533;BME280;9396;51.510;11.934;2022-08-11T08:38:02;101219.22;;;30.07;47.86
18533;BME280;9396;51.510;11.934;2022-08-11T08:40:29;101222.97;;;29.42;48.72
18533;BME280;9396;51.510;11.934;2022-08-11T08:42:58;101223.63;;;29.49;49.60
18533;BME280;9396;51.510;11.934;2022-08-11T08:45:33;101225.47;;;29.01;48.23
18533;BME280;9396;51.510;11.934;2022-08-11T08:48:03;101217.88;;;29.51;49.30
18533;BME280;9396;51.510;11.934;2022-08-11T08:50:33;101213.53;;;29.82;48.78
18533;BME280;9396;51.510;11.934;2022-08-11T08:53:20;101214.63;;;29.81;47.66
18533;BME280;9396;51.510;11.934;2022-08-11T08:55:49;101219.22;;;29.75;48.80
18533;BME280;9396;51.510;11.934;2022-08-11T08:58:19;101214.91;;;30.16;49.18
18533;BME280;9396;51.510;11.934;2022-08-11T09:00:50;101204.13;;;30.36;48.81
18533;BME280;9396;51.510;11.934;2022-08-11T09:03:19;101207.47;;;30.11;47.80
18533;BME280;9396;51.510;11.934;2022-08-11T09:05:46;101207.28;;;30.23;47.31
18533;BME280;9396;51.510;11.934;2022-08-11T09:08:13;101203.09;;;30.47;47.27
18533;BME280;9396;51.510;11.934;2022-08-11T09:10:44;101202.09;;;30.63;48.90
18533;BME280;9396;51.510;11.934;2022-08-11T09:13:13;101201.50;;;30.19;47.72
18533;BME280;9396;51.510;11.934;2022-08-11T09:15:41;101192.53;;;30.29;49.26
18533;BME280;9396;51.510;11.934;2022-08-11T09:18:09;101196.03;;;29.88;47.77
18533;BME280;9396;51.510;11.934;2022-08-11T09:20:37;101206.34;;;30.07;48.06
18533;BME280;9396;51.510;11.934;2022-08-11T09:23:06;101206.03;;;30.04;50.30
18533;BME280;9396;51.510;11.934;2022-08-11T09:25:53;101199.16;;;30.01;49.83
18533;BME280;9396;51.510;11.934;2022-08-11T09:28:38;101200.19;;;29.90;50.21
18533;BME280;9396;51.510;11.934;2022-08-11T09:31:07;101193.66;;;30.01;48.57
18533;BME280;9396;51.510;11.934;2022-08-11T09:33:37;101200.41;;;29.62;46.26
18533;BME280;9396;51.510;11.934;2022-08-11T09:36:06;101196.50;;;29.53;47.92
18533;BME280;9396;51.510;11.934;2022-08-11T09:38:49;101194.16;;;29.67;48.87
18533;BME280;9396;51.510;11.934;2022-08-11T09:41:34;101185.72;;;29.73;48.16
18533;BME280;9396;51.510;11.934;2022-08-11T09:44:02;101185.09;;;29.66;47.31
18533;BME280;9396;51.510;11.934;2022-08-11T09:46:48;101178.22;;;29.64;47.67
18533;BME280;9396;51.510;11.934;2022-08-11T09:49:18;101179.28;;;29.63;49.06
18533;BME280;9396;51.510;11.934;2022-08-11T09:51:46;101187.03;;;29.66;49.17
18533;BME280;9396;51.510;11.934;2022-08-11T09:54:15;101178.16;;;29.32;47.28
18533;BME280;9396;51.510;11.934;2022-08-11T09:56:44;101189.03;;;29.22;47.31
18533;BME280;9396;51.510;11.934;2022-08-11T09:59:29;101177.84;;;29.28;48.19
18533;BME280;9396;51.510;11.934;2022-08-11T10:01:58;101168.88;;;29.33;49.09
18533;BME280;9396;51.510;11.934;2022-08-11T10:04:30;101167.50;;;29.35;49.93
18533;BME280;9396;51.510;11.934;2022-08-11T10:07:01;101166.03;;;29.23;51.26
18533;BME280;9396;51.510;11.934;2022-08-11T10:09:35;101160.72;;;29.16;49.66
18533;BME280;9396;51.510;11.934;2022-08-11T10:12:05;101153.66;;;28.77;48.02
18533;BME280;9396;51.510;11.934;2022-08-11T10:14:37;101157.97;;;28.73;48.17
18533;BME280;9396;51.510;11.934;2022-08-11T10:17:23;101152.25;;;28.75;48.72
18533;BME280;9396;51.510;11.934;2022-08-11T10:19:53;101149.38;;;28.65;48.18
18533;BME280;9396;51.510;11.934;2022-08-11T10:22:22;101143.09;;;28.64;48.35
18533;BME280;9396;51.510;11.934;2022-08-11T10:25:07;101145.88;;;28.69;49.88
18533;BME280;9396;51.510;11.934;2022-08-11T10:27:52;101156.78;;;28.64;47.88
18533;BME280;9396;51.510;11.934;2022-08-11T10:30:24;101163.00;;;28.43;47.32
18533;BME280;9396;51.510;11.934;2022-08-11T10:33:11;101152.94;;;28.48;47.51
18533;BME280;9396;51.510;11.934;2022-08-11T10:35:57;101142.72;;;28.39;47.68
18533;BME280;9396;51.510;11.934;2022-08-11T10:38:26;101146.97;;;28.30;49.21
18533;BME280;9396;51.510;11.934;2022-08-11T10:40:54;101141.63;;;28.23;47.89
18533;BME280;9396;51.510;11.934;2022-08-11T10:43:37;101152.00;;;28.38;48.29
18533;BME280;9396;51.510;11.934;2022-08-11T10:46:06;101141.09;;;28.43;47.84
18533;BME280;9396;51.510;11.934;2022-08-11T10:48:53;101138.63;;;28.41;46.98
18533;BME280;9396;51.510;11.934;2022-08-11T10:51:23;101116.03;;;28.13;47.84
18533;BME280;9396;51.510;11.934;2022-08-11T10:54:08;101126.56;;;28.21;47.22
18533;BME280;9396;51.510;11.934;2022-08-11T10:56:53;101138.50;;;28.15;47.01
18533;BME280;9396;51.510;11.934;2022-08-11T10:59:39;101128.16;;;28.17;46.93
18533;BME280;9396;51.510;11.934;2022-08-11T11:02:07;101119.75;;;28.23;48.31
18533;BME280;9396;51.510;11.934;2022-08-11T11:07:34;101124.88;;;28.36;46.74
18533;BME280;9396;51.510;11.934;2022-08-11T11:10:04;101115.34;;;28.39;46.53
18533;BME280;9396;51.510;11.934;2022-08-11T11:12:38;101113.72;;;28.43;47.58
18533;BME280;9396;51.510;11.934;2022-08-11T11:15:23;101118.56;;;28.36;46.42
18533;BME280;9396;51.510;11.934;2022-08-11T11:18:13;101112.19;;;28.30;47.05
18533;BME280;9396;51.510;11.934;2022-08-11T11:20:42;101101.00;;;28.32;46.94
18533;BME280;9396;51.510;11.934;2022-08-11T11:23:15;101114.50;;;28.38;46.90
18533;BME280;9396;51.510;11.934;2022-08-11T11:25:59;101079.47;;;28.19;46.88
18533;BME280;9396;51.510;11.934;2022-08-11T11:28:57;101113.22;;;28.46;46.69
18533;BME280;9396;51.510;11.934;2022-08-11T11:31:35;101111.75;;;28.38;46.61
18533;BME280;9396;51.510;11.934;2022-08-11T11:34:16;101100.03;;;28.43;47.04
18533;BME280;9396;51.510;11.934;2022-08-11T11:36:49;101089.34;;;28.41;46.88
18533;BME280;9396;51.510;11.934;2022-08-11T11:39:20;101090.38;;;28.35;46.70
18533;BME280;9396;51.510;11.934;2022-08-11T11:41:48;101093.50;;;28.44;47.10
18533;BME280;9396;51.510;11.934;2022-08-11T11:44:19;101088.28;;;28.42;46.81
18533;BME280;9396;51.510;11.934;2022-08-11T11:46:47;101080.88;;;28.43;46.44
18533;BME280;9396;51.510;11.934;2022-08-11T11:49:16;101079.28;;;28.47;47.01
18533;BME280;9396;51.510;11.934;2022-08-11T11:51:45;101078.22;;;28.48;46.37
18533;BME280;9396;51.510;11.934;2022-08-11T11:54:13;101081.75;;;28.48;46.22
18533;BME280;9396;51.510;11.934;2022-08-11T11:56:41;101075.47;;;28.48;46.72
18533;BME280;9396;51.510;11.934;2022-08-11T11:59:10;101077.97;;;28.49;46.78
18533;BME280;9396;51.510;11.934;2022-08-11T12:01:56;101076.22;;;28.43;45.75
18533;BME280;9396;51.510;11.934;2022-08-11T12:04:23;101067.19;;;28.43;46.41
18533;BME280;9396;51.510;11.934;2022-08-11T12:06:52;101064.13;;;28.39;46.70
18533;BME280;9396;51.510;11.934;2022-08-11T12:09:39;101069.47;;;28.51;47.11
18533;BME280;9396;51.510;11.934;2022-08-11T12:12:08;101073.81;;;28.47;47.23
18533;BME280;9396;51.510;11.934;2022-08-11T12:14:53;101059.47;;;28.40;46.45
18533;BME280;9396;51.510;11.934;2022-08-11T12:17:20;101055.09;;;28.39;46.41
18533;BME280;9396;51.510;11.934;2022-08-11T12:19:48;101056.66;;;28.52;46.67
18533;BME280;9396;51.510;11.934;2022-08-11T12:22:16;101044.84;;;28.51;47.05
18533;BME280;9396;51.510;11.934;2022-08-11T12:25:01;101048.91;;;28.48;46.70
18533;BME280;9396;51.510;11.934;2022-08-11T12:27:47;101034.63;;;28.46;47.02
18533;BME280;9396;51.510;11.934;2022-08-11T12:30:14;101039.13;;;28.53;48.95
18533;BME280;9396;51.510;11.934;2022-08-11T12:32:41;101024.59;;;28.52;47.49
18533;BME280;9396;51.510;11.934;2022-08-11T12:35:08;101033.88;;;28.51;47.67
18533;BME280;9396;51.510;11.934;2022-08-11T12:37:39;101022.09;;;28.50;48.35
18533;BME280;9396;51.510;11.934;2022-08-11T12:40:11;101020.41;;;28.44;48.17
18533;BME280;9396;51.510;11.934;2022-08-11T12:43:01;101020.81;;;28.53;47.81
18533;BME280;9396;51.510;11.934;2022-08-11T12:45:46;101023.59;;;28.58;47.18
18533;BME280;9396;51.510;11.934;2022-08-11T12:48:17;101025.81;;;28.61;46.15
18533;BME280;9396;51.510;11.934;2022-08-11T12:51:04;101027.25;;;28.47;46.51
18533;BME280;9396;51.510;11.934;2022-08-11T12:53:53;101030.84;;;28.47;47.14
18533;BME280;9396;51.510;11.934;2022-08-11T12:56:21;101012.41;;;28.43;46.62
18533;BME280;9396;51.510;11.934;2022-08-11T12:59:08;101014.53;;;28.36;47.25
18533;BME280;9396;51.510;11.934;2022-08-11T13:01:53;101011.28;;;28.39;47.48
18533;BME280;9396;51.510;11.934;2022-08-11T13:04:40;101005.44;;;28.52;47.10
18533;BME280;9396;51.510;11.934;2022-08-11T13:07:24;100992.31;;;28.54;46.78
18533;BME280;9396;51.510;11.934;2022-08-11T13:09:51;100995.06;;;28.54;47.30
18533;BME280;9396;51.510;11.934;2022-08-11T13:12:20;101002.44;;;28.54;46.49
18533;BME280;9396;51.510;11.934;2022-08-11T13:15:08;100995.31;;;28.53;46.36
18533;BME280;9396;51.510;11.934;2022-08-11T13:17:37;100998.38;;;28.56;47.39
18533;BME280;9396;51.510;11.934;2022-08-11T13:20:06;100994.72;;;28.50;46.04
18533;BME280;9396;51.510;11.934;2022-08-11T13:22:35;100997.97;;;28.47;46.51
18533;BME280;9396;51.510;11.934;2022-08-11T13:25:03;100996.88;;;28.48;46.54
18533;BME280;9396;51.510;11.934;2022-08-11T13:27:31;100990.81;;;28.46;46.55
18533;BME280;9396;51.510;11.934;2022-08-11T13:29:58;100980.97;;;28.45;46.27
18533;BME280;9396;51.510;11.934;2022-08-11T13:32:41;100973.31;;;28.47;46.66
18533;BME280;9396;51.510;11.934;2022-08-11T13:35:11;100969.84;;;28.52;45.87
18533;BME280;9396;51.510;11.934;2022-08-11T13:37:41;100971.50;;;28.53;46.32
18533;BME280;9396;51.510;11.934;2022-08-11T13:40:10;100968.28;;;28.61;46.64
18533;BME280;9396;51.510;11.934;2022-08-11T13:42:39;100966.97;;;28.64;46.62
18533;BME280;9396;51.510;11.934;2022-08-11T13:45:07;100962.25;;;28.59;45.96
18533;BME280;9396;51.510;11.934;2022-08-11T13:47:36;100962.81;;;28.61;46.75
18533;BME280;9396;51.510;11.934;2022-08-11T13:50:06;100963.88;;;28.55;46.26
18533;BME280;9396;51.510;11.934;2022-08-11T13:52:34;100954.81;;;28.55;46.36
18533;BME280;9396;51.510;11.934;2022-08-11T13:55:04;100943.88;;;28.55;46.82
18533;BME280;9396;51.510;11.934;2022-08-11T13:57:32;100948.81;;;28.58;46.42
18533;BME280;9396;51.510;11.934;2022-08-11T13:59:59;100940.78;;;28.51;46.92
18533;BME280;9396;51.510;11.934;2022-08-11T14:02:37;100943.59;;;28.56;46.55
18533;BME280;9396;51.510;11.934;2022-08-11T14:05:11;100943.91;;;28.60;46.70
18533;BME280;9396;51.510;11.934;2022-08-11T14:07:45;100938.69;;;28.58;46.88
18533;BME280;9396;51.510;11.934;2022-08-11T14:10:15;100932.56;;;28.51;46.60
18533;BME280;9396;51.510;11.934;2022-08-11T14:12:46;100932.00;;;28.49;46.16
18533;BME280;9396;51.510;11.934;2022-08-11T14:15:33;100934.25;;;28.52;46.61
18533;BME280;9396;51.510;11.934;2022-08-11T14:18:03;100927.63;;;28.48;46.26
18533;BME280;9396;51.510;11.934;2022-08-11T14:20:34;100921.00;;;28.44;47.83
18533;BME280;9396;51.510;11.934;2022-08-11T14:23:25;100920.22;;;28.48;46.11
18533;BME280;9396;51.510;11.934;2022-08-11T14:25:54;100928.25;;;28.55;46.26
18533;BME280;9396;51.510;11.934;2022-08-11T14:28:38;100918.69;;;28.58;47.19
18533;BME280;9396;51.510;11.934;2022-08-11T14:31:06;100926.59;;;28.54;46.07
18533;BME280;9396;51.510;11.934;2022-08-11T14:33:34;100922.78;;;28.55;46.36
18533;BME280;9396;51.510;11.934;2022-08-11T14:36:03;100912.44;;;28.62;46.88